sensor_id;sensor_type;location;lat;lon;timestamp;P1;P2;P0
77515;PMS5003;66627;29.424;-98.496;2023-02-28T00:00:13;0;0;
77515;PMS5003;66627;29.424;-98.496;2023-02-28T00:02:38;0;0;
77515;PMS5003;66627;29.424;-98.496;2023-02-28T00:05:03;3;1;
77515;PMS5003;66627;29.424;-98.496;2023-02-28T00:07:28;1;1;
77515;PMS5003;66627;29.424;-98.496;2023-02-28T00:09:53;1;0;
77515;PMS5003;66627;29.424;-98.496;2023-02-28T00:12:18;0;0;
77515;PMS5003;66627;29.424;-98.496;2023-02-28T00:14:43;2;0;
77515;PMS5003;66627;29.424;-98.496;2023-02-28T00:17:08;0;0;
77515;PMS5003;66627;29.424;-98.496;2023-02-28T00:19:33;0;0;
77515;PMS5003;66627;29.424;-98.496;2023-02-28T00:21:59;1;1;
77515;PMS5003;66627;29.424;-98.496;2023-02-28T00:24:24;0;0;
77515;PMS5003;66627;29.424;-98.496;2023-02-28T00:26:49;1;1;
77515;PMS5003;66627;29.424;-98.496;2023-02-28T00:29:14;2;2;
77515;PMS5003;66627;29.424;-98.496;2023-02-28T00:31:39;0;0;
77515;PMS5003;66627;29.424;-98.496;2023-02-28T00:34:04;0;0;
77515;PMS5003;66627;29.424;-98.496;2023-02-28T00:36:30;1;1;
77515;PMS5003;66627;29.424;-98.496;2023-02-28T00:38:55;0;0;
77515;PMS5003;66627;29.424;-98.496;2023-02-28T00:41:20;3;1;
77515;PMS5003;66627;29.424;-98.496;2023-02-28T00:43:45;0;0;
77515;PMS5003;66627;29.424;-98.496;2023-02-28T00:46:10;1;0;
77515;PMS5003;66627;29.424;-98.496;2023-02-28T00:48:36;1;1;
77515;PMS5003;66627;29.424;-98.496;2023-02-28T00:51:01;1;1;
77515;PMS5003;66627;29.424;-98.496;2023-02-28T00:53:26;2;2;
77515;PMS5003;66627;29.424;-98.496;2023-02-28T00:55:51;1;1;
77515;PMS5003;66627;29.424;-98.496;2023-02-28T00:58:16;1;1;
77515;PMS5003;66627;29.424;-98.496;2023-02-28T01:00:41;5;5;
77515;PMS5003;66627;29.424;-98.496;2023-02-28T01:03:06;5;5;
77515;PMS5003;66627;29.424;-98.496;2023-02-28T01:05:32;10;10;
77515;PMS5003;66627;29.424;-98.496;2023-02-28T01:07:57;9;9;
77515;PMS5003;66627;29.424;-98.496;2023-02-28T01:10:22;7;7;
77515;PMS5003;66627;29.424;-98.496;2023-02-28T01:12:48;9;7;
77515;PMS5003;66627;29.424;-98.496;2023-02-28T01:15:13;8;8;
77515;PMS5003;66627;29.424;-98.496;2023-02-28T01:17:39;13;12;
77515;PMS5003;66627;29.424;-98.496;2023-02-28T01:20:04;11;11;
77515;PMS5003;66627;29.424;-98.496;2023-02-28T01:22:29;12;9;
77515;PMS5003;66627;29.424;-98.496;2023-02-28T01:24:55;7;7;
77515;PMS5003;66627;29.424;-98.496;2023-02-28T01:27:20;7;7;
77515;PMS5003;66627;29.424;-98.496;2023-02-28T01:29:45;10;7;
77515;PMS5003;66627;29.424;-98.496;2023-02-28T01:32:11;10;8;
77515;PMS5003;66627;29.424;-98.496;2023-02-28T01:34:36;6;5;
77515;PMS5003;66627;29.424;-98.496;2023-02-28T01:37:01;8;7;
77515;PMS5003;66627;29.424;-98.496;2023-02-28T01:39:26;5;5;
77515;PMS5003;66627;29.424;-98.496;2023-02-28T01:41:51;10;10;
77515;PMS5003;66627;29.424;-98.496;2023-02-28T01:46:42;12;12;
77515;PMS5003;66627;29.424;-98.496;2023-02-28T01:49:09;11;10;
77515;PMS5003;66627;29.424;-98.496;2023-02-28T01:51:34;12;12;
77515;PMS5003;66627;29.424;-98.496;2023-02-28T01:54:00;11;10;
77515;PMS5003;66627;29.424;-98.496;2023-02-28T01:56:26;15;15;
77515;PMS5003;66627;29.424;-98.496;2023-02-28T01:58:51;18;15;
77515;PMS5003;66627;29.424;-98.496;2023-02-28T02:01:15;19;17;
77515;PMS5003;66627;29.424;-98.496;2023-02-28T02:03:41;11;10;
77515;PMS5003;66627;29.424;-98.496;2023-02-28T02:06:06;15;15;
77515;PMS5003;66627;29.424;-98.496;2023-02-28T02:08:31;11;11;
77515;PMS5003;66627;29.424;-98.496;2023-02-28T02:10:58;11;11;
77515;PMS5003;66627;29.424;-98.496;2023-02-28T02:13:27;10;10;
77515;PMS5003;66627;29.424;-98.496;2023-02-28T02:15:49;10;10;
77515;PMS5003;66627;29.424;-98.496;2023-02-28T02:18:16;12;9;
77515;PMS5003;66627;29.424;-98.496;2023-02-28T02:23:09;9;9;
77515;PMS5003;66627;29.424;-98.496;2023-02-28T02:25:29;10;10;
77515;PMS5003;66627;29.424;-98.496;2023-02-28T02:27:59;11;11;
77515;PMS5003;66627;29.424;-98.496;2023-02-28T02:30:23;9;9;
77515;PMS5003;66627;29.424;-98.496;2023-02-28T02:32:49;8;8;
77515;PMS5003;66627;29.424;-98.496;2023-02-28T02:35:12;9;9;
77515;PMS5003;66627;29.424;-98.496;2023-02-28T02:37:37;8;7;
77515;PMS5003;66627;29.424;-98.496;2023-02-28T02:40:03;11;10;
77515;PMS5003;66627;29.424;-98.496;2023-02-28T02:42:28;7;7;
77515;PMS5003;66627;29.424;-98.496;2023-02-28T02:44:53;7;7;
77515;PMS5003;66627;29.424;-98.496;2023-02-28T02:47:18;8;8;
77515;PMS5003;66627;29.424;-98.496;2023-02-28T02:49:44;7;7;
77515;PMS5003;66627;29.424;-98.496;2023-02-28T02:52:09;9;8;
77515;PMS5003;66627;29.424;-98.496;2023-02-28T02:54:34;11;6;
77515;PMS5003;66627;29.424;-98.496;2023-02-28T02:56:59;9;7;
77515;PMS5003;66627;29.424;-98.496;2023-02-28T02:59:24;7;7;
77515;PMS5003;66627;29.424;-98.496;2023-02-28T03:01:50;8;7;
77515;PMS5003;66627;29.424;-98.496;2023-02-28T03:04:16;8;8;
77515;PMS5003;66627;29.424;-98.496;2023-02-28T03:06:40;8;8;
77515;PMS5003;66627;29.424;-98.496;2023-02-28T03:09:06;8;7;
77515;PMS5003;66627;29.424;-98.496;2023-02-28T03:11:31;6;5;
77515;PMS5003;66627;29.424;-98.496;2023-02-28T03:14:06;6;6;
77515;PMS5003;66627;29.424;-98.496;2023-02-28T03:16:26;7;6;
77515;PMS5003;66627;29.424;-98.496;2023-02-28T03:18:48;7;6;
77515;PMS5003;66627;29.424;-98.496;2023-02-28T03:21:13;8;8;
77515;PMS5003;66627;29.424;-98.496;2023-02-28T03:23:40;7;7;
77515;PMS5003;66627;29.424;-98.496;2023-02-28T03:26:04;16;16;
77515;PMS5003;66627;29.424;-98.496;2023-02-28T03:28:31;22;19;
77515;PMS5003;66627;29.424;-98.496;2023-02-28T03:30:54;40;37;
77515;PMS5003;66627;29.424;-98.496;2023-02-28T03:33:19;91;81;
77515;PMS5003;66627;29.424;-98.496;2023-02-28T03:35:43;89;74;
77515;PMS5003;66627;29.424;-98.496;2023-02-28T03:38:10;60;51;
77515;PMS5003;66627;29.424;-98.496;2023-02-28T03:40:34;52;49;
77515;PMS5003;66627;29.424;-98.496;2023-02-28T03:43:01;29;25;
77515;PMS5003;66627;29.424;-98.496;2023-02-28T03:45:26;39;36;
77515;PMS5003;66627;29.424;-98.496;2023-02-28T03:47:54;19;18;
77515;PMS5003;66627;29.424;-98.496;2023-02-28T03:50:17;15;11;
77515;PMS5003;66627;29.424;-98.496;2023-02-28T03:52:42;14;13;
77515;PMS5003;66627;29.424;-98.496;2023-02-28T03:55:08;13;11;
77515;PMS5003;66627;29.424;-98.496;2023-02-28T03:57:34;8;8;
77515;PMS5003;66627;29.424;-98.496;2023-02-28T03:59:59;7;5;
77515;PMS5003;66627;29.424;-98.496;2023-02-28T04:02:23;7;6;
77515;PMS5003;66627;29.424;-98.496;2023-02-28T04:04:49;6;6;
77515;PMS5003;66627;29.424;-98.496;2023-02-28T04:07:14;11;8;
77515;PMS5003;66627;29.424;-98.496;2023-02-28T04:09:40;8;8;
77515;PMS5003;66627;29.424;-98.496;2023-02-28T04:12:05;10;10;
77515;PMS5003;66627;29.424;-98.496;2023-02-28T04:14:30;18;17;
77515;PMS5003;66627;29.424;-98.496;2023-02-28T04:16:55;13;12;
77515;PMS5003;66627;29.424;-98.496;2023-02-28T04:19:20;7;7;
77515;PMS5003;66627;29.424;-98.496;2023-02-28T04:21:46;7;7;
77515;PMS5003;66627;29.424;-98.496;2023-02-28T04:24:12;6;6;
77515;PMS5003;66627;29.424;-98.496;2023-02-28T04:26:36;6;6;
77515;PMS5003;66627;29.424;-98.496;2023-02-28T04:29:02;10;8;
77515;PMS5003;66627;29.424;-98.496;2023-02-28T04:31:27;7;6;
77515;PMS5003;66627;29.424;-98.496;2023-02-28T04:33:53;10;7;
77515;PMS5003;66627;29.424;-98.496;2023-02-28T04:36:18;10;8;
77515;PMS5003;66627;29.424;-98.496;2023-02-28T04:38:44;10;8;
77515;PMS5003;66627;29.424;-98.496;2023-02-28T04:41:10;13;10;
77515;PMS5003;66627;29.424;-98.496;2023-02-28T04:43:33;10;10;
77515;PMS5003;66627;29.424;-98.496;2023-02-28T04:46:00;10;10;
77515;PMS5003;66627;29.424;-98.496;2023-02-28T04:48:25;9;8;
77515;PMS5003;66627;29.424;-98.496;2023-02-28T04:50:50;9;9;
77515;PMS5003;66627;29.424;-98.496;2023-02-28T04:53:15;8;8;
77515;PMS5003;66627;29.424;-98.496;2023-02-28T04:55:41;10;9;
77515;PMS5003;66627;29.424;-98.496;2023-02-28T04:58:07;9;9;
77515;PMS5003;66627;29.424;-98.496;2023-02-28T05:00:32;11;8;
77515;PMS5003;66627;29.424;-98.496;2023-02-28T05:02:58;7;7;
77515;PMS5003;66627;29.424;-98.496;2023-02-28T05:05:23;7;7;
77515;PMS5003;66627;29.424;-98.496;2023-02-28T05:07:50;7;7;
77515;PMS5003;66627;29.424;-98.496;2023-02-28T05:10:15;10;9;
77515;PMS5003;66627;29.424;-98.496;2023-02-28T05:12:40;9;7;
77515;PMS5003;66627;29.424;-98.496;2023-02-28T05:15:06;10;9;
77515;PMS5003;66627;29.424;-98.496;2023-02-28T05:17:31;8;6;
77515;PMS5003;66627;29.424;-98.496;2023-02-28T05:19:56;8;7;
77515;PMS5003;66627;29.424;-98.496;2023-02-28T05:22:21;9;7;
77515;PMS5003;66627;29.424;-98.496;2023-02-28T05:24:47;8;8;
77515;PMS5003;66627;29.424;-98.496;2023-02-28T05:27:12;13;9;
77515;PMS5003;66627;29.424;-98.496;2023-02-28T05:29:37;11;10;
77515;PMS5003;66627;29.424;-98.496;2023-02-28T05:32:03;14;10;
77515;PMS5003;66627;29.424;-98.496;2023-02-28T05:34:28;11;8;
77515;PMS5003;66627;29.424;-98.496;2023-02-28T05:36:54;7;7;
77515;PMS5003;66627;29.424;-98.496;2023-02-28T05:39:19;9;9;
77515;PMS5003;66627;29.424;-98.496;2023-02-28T05:41:45;10;9;
77515;PMS5003;66627;29.424;-98.496;2023-02-28T05:44:10;9;7;
77515;PMS5003;66627;29.424;-98.496;2023-02-28T05:46:36;10;9;
77515;PMS5003;66627;29.424;-98.496;2023-02-28T05:49:01;10;9;
77515;PMS5003;66627;29.424;-98.496;2023-02-28T05:51:26;14;10;
77515;PMS5003;66627;29.424;-98.496;2023-02-28T05:53:52;13;10;
77515;PMS5003;66627;29.424;-98.496;2023-02-28T05:56:18;8;8;
77515;PMS5003;66627;29.424;-98.496;2023-02-28T05:58:43;12;9;
77515;PMS5003;66627;29.424;-98.496;2023-02-28T06:03:34;5;5;
77515;PMS5003;66627;29.424;-98.496;2023-02-28T06:05:59;8;7;
77515;PMS5003;66627;29.424;-98.496;2023-02-28T06:08:24;10;7;
77515;PMS5003;66627;29.424;-98.496;2023-02-28T06:10:50;7;7;
77515;PMS5003;66627;29.424;-98.496;2023-02-28T06:13:15;9;9;
77515;PMS5003;66627;29.424;-98.496;2023-02-28T06:15:41;7;6;
77515;PMS5003;66627;29.424;-98.496;2023-02-28T06:18:06;17;16;
77515;PMS5003;66627;29.424;-98.496;2023-02-28T06:20:32;12;9;
77515;PMS5003;66627;29.424;-98.496;2023-02-28T06:22:57;8;7;
77515;PMS5003;66627;29.424;-98.496;2023-02-28T06:25:22;8;6;
77515;PMS5003;66627;29.424;-98.496;2023-02-28T06:27:47;8;7;
77515;PMS5003;66627;29.424;-98.496;2023-02-28T06:30:14;10;8;
77515;PMS5003;66627;29.424;-98.496;2023-02-28T06:32:38;24;23;
77515;PMS5003;66627;29.424;-98.496;2023-02-28T06:35:04;38;33;
77515;PMS5003;66627;29.424;-98.496;2023-02-28T06:37:30;30;30;
77515;PMS5003;66627;29.424;-98.496;2023-02-28T06:39:54;29;24;
77515;PMS5003;66627;29.424;-98.496;2023-02-28T06:42:19;40;39;
77515;PMS5003;66627;29.424;-98.496;2023-02-28T06:44:46;49;49;
77515;PMS5003;66627;29.424;-98.496;2023-02-28T06:47:10;62;52;
77515;PMS5003;66627;29.424;-98.496;2023-02-28T06:49:35;49;43;
77515;PMS5003;66627;29.424;-98.496;2023-02-28T06:52:01;50;47;
77515;PMS5003;66627;29.424;-98.496;2023-02-28T06:54:27;54;52;
77515;PMS5003;66627;29.424;-98.496;2023-02-28T06:56:52;40;39;
77515;PMS5003;66627;29.424;-98.496;2023-02-28T06:59:17;41;37;
77515;PMS5003;66627;29.424;-98.496;2023-02-28T07:01:42;39;35;
77515;PMS5003;66627;29.424;-98.496;2023-02-28T07:04:08;30;26;
77515;PMS5003;66627;29.424;-98.496;2023-02-28T07:06:33;16;13;
77515;PMS5003;66627;29.424;-98.496;2023-02-28T07:08:59;16;16;
77515;PMS5003;66627;29.424;-98.496;2023-02-28T07:11:26;15;14;
77515;PMS5003;66627;29.424;-98.496;2023-02-28T07:13:51;12;11;
77515;PMS5003;66627;29.424;-98.496;2023-02-28T07:16:18;9;9;
77515;PMS5003;66627;29.424;-98.496;2023-02-28T07:18:43;18;16;
77515;PMS5003;66627;29.424;-98.496;2023-02-28T07:21:09;10;10;
77515;PMS5003;66627;29.424;-98.496;2023-02-28T07:23:34;10;10;
77515;PMS5003;66627;29.424;-98.496;2023-02-28T07:25:59;9;8;
77515;PMS5003;66627;29.424;-98.496;2023-02-28T07:28:24;10;9;
77515;PMS5003;66627;29.424;-98.496;2023-02-28T07:30:50;15;10;
77515;PMS5003;66627;29.424;-98.496;2023-02-28T07:33:15;16;11;
77515;PMS5003;66627;29.424;-98.496;2023-02-28T07:35:40;12;11;
77515;PMS5003;66627;29.424;-98.496;2023-02-28T07:38:06;13;12;
77515;PMS5003;66627;29.424;-98.496;2023-02-28T07:40:31;13;12;
77515;PMS5003;66627;29.424;-98.496;2023-02-28T07:42:58;11;10;
77515;PMS5003;66627;29.424;-98.496;2023-02-28T07:45:23;10;10;
77515;PMS5003;66627;29.424;-98.496;2023-02-28T07:47:47;12;11;
77515;PMS5003;66627;29.424;-98.496;2023-02-28T07:50:14;10;9;
77515;PMS5003;66627;29.424;-98.496;2023-02-28T07:52:39;9;9;
77515;PMS5003;66627;29.424;-98.496;2023-02-28T07:55:07;9;9;
77515;PMS5003;66627;29.424;-98.496;2023-02-28T07:57:30;9;9;
77515;PMS5003;66627;29.424;-98.496;2023-02-28T07:59:56;13;13;
77515;PMS5003;66627;29.424;-98.496;2023-02-28T08:02:21;11;9;
77515;PMS5003;66627;29.424;-98.496;2023-02-28T08:04:46;8;8;
77515;PMS5003;66627;29.424;-98.496;2023-02-28T08:07:13;11;9;
77515;PMS5003;66627;29.424;-98.496;2023-02-28T08:09:37;10;10;
77515;PMS5003;66627;29.424;-98.496;2023-02-28T08:12:04;16;16;
77515;PMS5003;66627;29.424;-98.496;2023-02-28T08:14:29;13;13;
77515;PMS5003;66627;29.424;-98.496;2023-02-28T08:16:54;12;10;
77515;PMS5003;66627;29.424;-98.496;2023-02-28T08:19:20;12;11;
77515;PMS5003;66627;29.424;-98.496;2023-02-28T08:21:45;14;14;
77515;PMS5003;66627;29.424;-98.496;2023-02-28T08:24:10;13;12;
77515;PMS5003;66627;29.424;-98.496;2023-02-28T08:26:36;15;13;
77515;PMS5003;66627;29.424;-98.496;2023-02-28T08:29:02;14;13;
77515;PMS5003;66627;29.424;-98.496;2023-02-28T08:31:27;13;13;
77515;PMS5003;66627;29.424;-98.496;2023-02-28T08:33:52;15;11;
77515;PMS5003;66627;29.424;-98.496;2023-02-28T08:36:17;11;10;
77515;PMS5003;66627;29.424;-98.496;2023-02-28T08:38:43;14;13;
77515;PMS5003;66627;29.424;-98.496;2023-02-28T08:41:10;12;12;
77515;PMS5003;66627;29.424;-98.496;2023-02-28T08:43:34;12;11;
77515;PMS5003;66627;29.424;-98.496;2023-02-28T08:46:00;15;11;
77515;PMS5003;66627;29.424;-98.496;2023-02-28T08:48:26;12;11;
77515;PMS5003;66627;29.424;-98.496;2023-02-28T08:50:57;10;10;
77515;PMS5003;66627;29.424;-98.496;2023-02-28T08:53:17;14;13;
77515;PMS5003;66627;29.424;-98.496;2023-02-28T08:55:42;14;13;
77515;PMS5003;66627;29.424;-98.496;2023-02-28T08:58:07;11;11;
77515;PMS5003;66627;29.424;-98.496;2023-02-28T09:00:33;16;12;
77515;PMS5003;66627;29.424;-98.496;2023-02-28T09:02:57;11;9;
77515;PMS5003;66627;29.424;-98.496;2023-02-28T09:05:24;20;19;
77515;PMS5003;66627;29.424;-98.496;2023-02-28T09:07:50;17;13;
77515;PMS5003;66627;29.424;-98.496;2023-02-28T09:10:15;14;14;
77515;PMS5003;66627;29.424;-98.496;2023-02-28T09:12:41;17;12;
77515;PMS5003;66627;29.424;-98.496;2023-02-28T09:15:07;12;10;
77515;PMS5003;66627;29.424;-98.496;2023-02-28T09:17:32;14;11;
77515;PMS5003;66627;29.424;-98.496;2023-02-28T09:19:57;13;13;
77515;PMS5003;66627;29.424;-98.496;2023-02-28T09:22:22;13;13;
77515;PMS5003;66627;29.424;-98.496;2023-02-28T09:24:48;13;12;
77515;PMS5003;66627;29.424;-98.496;2023-02-28T09:27:13;19;17;
77515;PMS5003;66627;29.424;-98.496;2023-02-28T09:29:38;16;14;
77515;PMS5003;66627;29.424;-98.496;2023-02-28T09:32:03;13;11;
77515;PMS5003;66627;29.424;-98.496;2023-02-28T09:34:29;15;15;
77515;PMS5003;66627;29.424;-98.496;2023-02-28T09:36:55;13;13;
77515;PMS5003;66627;29.424;-98.496;2023-02-28T09:39:21;14;13;
77515;PMS5003;66627;29.424;-98.496;2023-02-28T09:41:47;13;13;
77515;PMS5003;66627;29.424;-98.496;2023-02-28T09:44:12;14;12;
77515;PMS5003;66627;29.424;-98.496;2023-02-28T09:46:38;13;13;
77515;PMS5003;66627;29.424;-98.496;2023-02-28T09:49:05;14;13;
77515;PMS5003;66627;29.424;-98.496;2023-02-28T09:51:34;14;14;
77515;PMS5003;66627;29.424;-98.496;2023-02-28T09:53:54;14;14;
77515;PMS5003;66627;29.424;-98.496;2023-02-28T09:56:20;20;18;
77515;PMS5003;66627;29.424;-98.496;2023-02-28T09:58:47;19;17;
77515;PMS5003;66627;29.424;-98.496;2023-02-28T10:01:12;19;18;
77515;PMS5003;66627;29.424;-98.496;2023-02-28T10:03:38;15;14;
77515;PMS5003;66627;29.424;-98.496;2023-02-28T10:06:04;17;14;
77515;PMS5003;66627;29.424;-98.496;2023-02-28T10:08:29;13;13;
77515;PMS5003;66627;29.424;-98.496;2023-02-28T10:10:54;15;15;
77515;PMS5003;66627;29.424;-98.496;2023-02-28T10:13:21;12;12;
77515;PMS5003;66627;29.424;-98.496;2023-02-28T10:15:45;18;17;
77515;PMS5003;66627;29.424;-98.496;2023-02-28T10:18:11;13;12;
77515;PMS5003;66627;29.424;-98.496;2023-02-28T10:20:37;17;14;
77515;PMS5003;66627;29.424;-98.496;2023-02-28T10:23:03;24;19;
77515;PMS5003;66627;29.424;-98.496;2023-02-28T10:25:27;19;19;
77515;PMS5003;66627;29.424;-98.496;2023-02-28T10:27:53;18;15;
77515;PMS5003;66627;29.424;-98.496;2023-02-28T10:30:17;20;16;
77515;PMS5003;66627;29.424;-98.496;2023-02-28T10:32:44;26;20;
77515;PMS5003;66627;29.424;-98.496;2023-02-28T10:35:14;21;21;
77515;PMS5003;66627;29.424;-98.496;2023-02-28T10:37:34;16;15;
77515;PMS5003;66627;29.424;-98.496;2023-02-28T10:39:59;20;17;
77515;PMS5003;66627;29.424;-98.496;2023-02-28T10:42:26;18;17;
77515;PMS5003;66627;29.424;-98.496;2023-02-28T10:47:16;22;18;
77515;PMS5003;66627;29.424;-98.496;2023-02-28T10:49:46;18;15;
77515;PMS5003;66627;29.424;-98.496;2023-02-28T10:52:07;28;20;
77515;PMS5003;66627;29.424;-98.496;2023-02-28T10:54:34;21;20;
77515;PMS5003;66627;29.424;-98.496;2023-02-28T10:59:26;25;21;
77515;PMS5003;66627;29.424;-98.496;2023-02-28T11:01:49;19;18;
77515;PMS5003;66627;29.424;-98.496;2023-02-28T11:04:16;22;20;
77515;PMS5003;66627;29.424;-98.496;2023-02-28T11:06:40;24;22;
77515;PMS5003;66627;29.424;-98.496;2023-02-28T11:09:15;22;22;
77515;PMS5003;66627;29.424;-98.496;2023-02-28T11:11:40;18;18;
77515;PMS5003;66627;29.424;-98.496;2023-02-28T11:14:02;30;24;
77515;PMS5003;66627;29.424;-98.496;2023-02-28T11:16:22;26;21;
77515;PMS5003;66627;29.424;-98.496;2023-02-28T11:18:48;20;20;
77515;PMS5003;66627;29.424;-98.496;2023-02-28T11:21:16;27;25;
77515;PMS5003;66627;29.424;-98.496;2023-02-28T11:23:39;20;19;
77515;PMS5003;66627;29.424;-98.496;2023-02-28T11:26:04;21;20;
77515;PMS5003;66627;29.424;-98.496;2023-02-28T11:28:30;23;22;
77515;PMS5003;66627;29.424;-98.496;2023-02-28T11:33:21;25;22;
77515;PMS5003;66627;29.424;-98.496;2023-02-28T11:35:46;22;20;
77515;PMS5003;66627;29.424;-98.496;2023-02-28T11:38:11;24;24;
77515;PMS5003;66627;29.424;-98.496;2023-02-28T11:40:38;22;21;
77515;PMS5003;66627;29.424;-98.496;2023-02-28T11:43:05;26;23;
77515;PMS5003;66627;29.424;-98.496;2023-02-28T11:45:32;27;21;
77515;PMS5003;66627;29.424;-98.496;2023-02-28T11:47:55;18;18;
77515;PMS5003;66627;29.424;-98.496;2023-02-28T11:50:22;22;19;
77515;PMS5003;66627;29.424;-98.496;2023-02-28T11:52:47;32;26;
77515;PMS5003;66627;29.424;-98.496;2023-02-28T11:55:14;23;22;
77515;PMS5003;66627;29.424;-98.496;2023-02-28T11:57:39;28;24;
77515;PMS5003;66627;29.424;-98.496;2023-02-28T12:00:03;28;22;
77515;PMS5003;66627;29.424;-98.496;2023-02-28T12:02:27;23;23;
77515;PMS5003;66627;29.424;-98.496;2023-02-28T12:04:55;30;27;
77515;PMS5003;66627;29.424;-98.496;2023-02-28T12:07:18;26;24;
77515;PMS5003;66627;29.424;-98.496;2023-02-28T12:09:46;31;27;
77515;PMS5003;66627;29.424;-98.496;2023-02-28T12:12:10;27;24;
77515;PMS5003;66627;29.424;-98.496;2023-02-28T12:17:01;30;23;
77515;PMS5003;66627;29.424;-98.496;2023-02-28T12:19:24;29;27;
77515;PMS5003;66627;29.424;-98.496;2023-02-28T12:24:20;24;24;
77515;PMS5003;66627;29.424;-98.496;2023-02-28T12:26:40;24;24;
77515;PMS5003;66627;29.424;-98.496;2023-02-28T12:29:10;25;22;
77515;PMS5003;66627;29.424;-98.496;2023-02-28T12:31:33;32;31;
77515;PMS5003;66627;29.424;-98.496;2023-02-28T12:33:59;29;26;
77515;PMS5003;66627;29.424;-98.496;2023-02-28T12:36:22;29;27;
77515;PMS5003;66627;29.424;-98.496;2023-02-28T12:38:49;25;24;
77515;PMS5003;66627;29.424;-98.496;2023-02-28T12:41:13;23;23;
77515;PMS5003;66627;29.424;-98.496;2023-02-28T12:43:40;22;20;
77515;PMS5003;66627;29.424;-98.496;2023-02-28T12:46:06;26;24;
77515;PMS5003;66627;29.424;-98.496;2023-02-28T12:48:31;29;24;
77515;PMS5003;66627;29.424;-98.496;2023-02-28T12:50:55;20;18;
77515;PMS5003;66627;29.424;-98.496;2023-02-28T12:53:23;19;19;
77515;PMS5003;66627;29.424;-98.496;2023-02-28T12:55:47;25;21;
77515;PMS5003;66627;29.424;-98.496;2023-02-28T12:58:13;22;19;
77515;PMS5003;66627;29.424;-98.496;2023-02-28T13:00:38;16;16;
77515;PMS5003;66627;29.424;-98.496;2023-02-28T13:03:08;22;22;
77515;PMS5003;66627;29.424;-98.496;2023-02-28T13:07:58;27;22;
77515;PMS5003;66627;29.424;-98.496;2023-02-28T13:10:18;23;22;
77515;PMS5003;66627;29.424;-98.496;2023-02-28T13:12:48;19;19;
77515;PMS5003;66627;29.424;-98.496;2023-02-28T13:15:16;25;22;
77515;PMS5003;66627;29.424;-98.496;2023-02-28T13:17:36;26;23;
77515;PMS5003;66627;29.424;-98.496;2023-02-28T13:20:01;25;21;
77515;PMS5003;66627;29.424;-98.496;2023-02-28T13:24:52;25;23;
77515;PMS5003;66627;29.424;-98.496;2023-02-28T13:27:21;20;18;
77515;PMS5003;66627;29.424;-98.496;2023-02-28T13:29:43;16;16;
77515;PMS5003;66627;29.424;-98.496;2023-02-28T13:34:33;19;19;
77515;PMS5003;66627;29.424;-98.496;2023-02-28T13:41:49;20;19;
77515;PMS5003;66627;29.424;-98.496;2023-02-28T13:44:16;22;20;
77515;PMS5003;66627;29.424;-98.496;2023-02-28T13:56:24;22;20;
77515;PMS5003;66627;29.424;-98.496;2023-02-28T13:58:51;24;22;
77515;PMS5003;66627;29.424;-98.496;2023-02-28T14:01:20;29;26;
77515;PMS5003;66627;29.424;-98.496;2023-02-28T14:03:44;27;26;
77515;PMS5003;66627;29.424;-98.496;2023-02-28T14:06:09;23;23;
77515;PMS5003;66627;29.424;-98.496;2023-02-28T14:08:31;20;19;
77515;PMS5003;66627;29.424;-98.496;2023-02-28T14:15:48;21;21;
77515;PMS5003;66627;29.424;-98.496;2023-02-28T14:18:22;25;23;
77515;PMS5003;66627;29.424;-98.496;2023-02-28T14:20:38;29;25;
77515;PMS5003;66627;29.424;-98.496;2023-02-28T14:23:04;31;26;
77515;PMS5003;66627;29.424;-98.496;2023-02-28T14:25:30;24;23;
77515;PMS5003;66627;29.424;-98.496;2023-02-28T14:27:57;27;25;
77515;PMS5003;66627;29.424;-98.496;2023-02-28T14:32:47;35;32;
77515;PMS5003;66627;29.424;-98.496;2023-02-28T14:35:16;28;26;
77515;PMS5003;66627;29.424;-98.496;2023-02-28T14:37:38;30;27;
77515;PMS5003;66627;29.424;-98.496;2023-02-28T14:40:02;26;26;
77515;PMS5003;66627;29.424;-98.496;2023-02-28T14:42:29;29;28;
77515;PMS5003;66627;29.424;-98.496;2023-02-28T14:44:53;37;36;
77515;PMS5003;66627;29.424;-98.496;2023-02-28T14:47:18;38;38;
77515;PMS5003;66627;29.424;-98.496;2023-02-28T14:49:44;38;35;
77515;PMS5003;66627;29.424;-98.496;2023-02-28T14:52:12;42;39;
77515;PMS5003;66627;29.424;-98.496;2023-02-28T14:54:33;41;37;
77515;PMS5003;66627;29.424;-98.496;2023-02-28T14:56:59;37;35;
77515;PMS5003;66627;29.424;-98.496;2023-02-28T14:59:25;41;37;
77515;PMS5003;66627;29.424;-98.496;2023-02-28T15:01:49;47;37;
77515;PMS5003;66627;29.424;-98.496;2023-02-28T15:04:18;39;38;
77515;PMS5003;66627;29.424;-98.496;2023-02-28T15:06:40;39;35;
77515;PMS5003;66627;29.424;-98.496;2023-02-28T15:09:07;49;39;
77515;PMS5003;66627;29.424;-98.496;2023-02-28T15:11:30;39;38;
77515;PMS5003;66627;29.424;-98.496;2023-02-28T15:13:56;40;39;
77515;PMS5003;66627;29.424;-98.496;2023-02-28T15:16:22;43;38;
77515;PMS5003;66627;29.424;-98.496;2023-02-28T15:18:48;44;37;
77515;PMS5003;66627;29.424;-98.496;2023-02-28T15:21:14;46;43;
77515;PMS5003;66627;29.424;-98.496;2023-02-28T15:23:39;40;39;
77515;PMS5003;66627;29.424;-98.496;2023-02-28T15:26:04;42;38;
77515;PMS5003;66627;29.424;-98.496;2023-02-28T15:28:30;42;39;
77515;PMS5003;66627;29.424;-98.496;2023-02-28T15:30:57;39;34;
77515;PMS5003;66627;29.424;-98.496;2023-02-28T15:33:21;42;38;
77515;PMS5003;66627;29.424;-98.496;2023-02-28T15:35:46;40;37;
77515;PMS5003;66627;29.424;-98.496;2023-02-28T15:38:14;48;40;
77515;PMS5003;66627;29.424;-98.496;2023-02-28T15:40:37;51;43;
77515;PMS5003;66627;29.424;-98.496;2023-02-28T15:43:04;41;37;
77515;PMS5003;66627;29.424;-98.496;2023-02-28T15:45:28;42;38;
77515;PMS5003;66627;29.424;-98.496;2023-02-28T15:47:52;46;40;
77515;PMS5003;66627;29.424;-98.496;2023-02-28T15:50:18;48;41;
77515;PMS5003;66627;29.424;-98.496;2023-02-28T15:52:43;41;36;
77515;PMS5003;66627;29.424;-98.496;2023-02-28T15:55:09;41;40;
77515;PMS5003;66627;29.424;-98.496;2023-02-28T15:57:34;40;35;
77515;PMS5003;66627;29.424;-98.496;2023-02-28T16:00:00;42;39;
77515;PMS5003;66627;29.424;-98.496;2023-02-28T16:02:30;49;40;
77515;PMS5003;66627;29.424;-98.496;2023-02-28T16:04:56;40;38;
77515;PMS5003;66627;29.424;-98.496;2023-02-28T16:07:16;43;41;
77515;PMS5003;66627;29.424;-98.496;2023-02-28T16:09:42;49;44;
77515;PMS5003;66627;29.424;-98.496;2023-02-28T16:12:08;47;43;
77515;PMS5003;66627;29.424;-98.496;2023-02-28T16:14:33;44;41;
77515;PMS5003;66627;29.424;-98.496;2023-02-28T16:17:04;48;40;
77515;PMS5003;66627;29.424;-98.496;2023-02-28T16:19:24;45;38;
77515;PMS5003;66627;29.424;-98.496;2023-02-28T16:21:50;45;38;
77515;PMS5003;66627;29.424;-98.496;2023-02-28T16:24:15;44;40;
77515;PMS5003;66627;29.424;-98.496;2023-02-28T16:26:40;44;41;
77515;PMS5003;66627;29.424;-98.496;2023-02-28T16:29:08;38;34;